Sterling, Michigan
Current Conditions -  °F | °C
As of 1:14 PM on Wednesday 28 Jan 2015 (Local Time) from KIKW Reporting Station
Clear Clear  
Wind Chill: 22°   Ceiling: Unl
Heat Index: 29°   Visibility: 10mi
Dew Point: 13°   Wind: 7mph
Humidity: 51%   Direction: 170°S
Pressure: 30.26"   Gusts: NA
Location:  44.03°N, 84.02°W
Report Text: KIKW 281814Z AUTO 17006KT 10SM CLR M01/M10 A3026 RMK AO2 T10151105
Loading
Personal Weather Stations






























Interactive Weather Map New forecast layout! Learn more

10-Day Weather Forecast

Advertisements
Track Severe Weather on mobile